createdAt,value
2022-11-06T04:21:37.520Z,0.875
2022-11-06T04:31:26.635Z,0.7875000000000001
2022-11-06T04:34:29.074Z,0.6
2022-11-06T04:37:24.415Z,0.35
2022-11-06T04:41:26.560Z,0.875
2022-11-06T04:44:24.086Z,1.0750000000000002
2022-11-06T04:47:19.398Z,0.9750000000000001
2022-11-06T04:51:20.371Z,0.675
2022-11-06T04:54:17.889Z,0.42500000000000004
2022-11-06T04:57:17.475Z,0.5
2022-11-06T05:01:16.813Z,0.4625
2022-11-06T05:04:17.789Z,0.45
2022-11-06T05:07:18.432Z,0.675
2022-11-06T05:11:16.380Z,0.7125
2022-11-06T05:14:16.838Z,0.21250000000000002
2022-11-06T05:17:16.881Z,0.2625
2022-11-06T05:31:17.274Z,0.65
2022-11-06T05:34:17.075Z,0.46249999999999997
2022-11-06T05:37:17.196Z,0.375
2022-11-06T05:41:16.355Z,0.4375
2022-11-06T05:44:16.364Z,0.5125
2022-11-06T05:47:16.914Z,0.5
2022-11-06T05:51:16.650Z,0.36250000000000004
2022-11-06T05:54:16.934Z,0.22499999999999998
2022-11-06T05:57:17.631Z,0.45
2022-11-06T06:01:17.701Z,0.575
2022-11-06T06:04:17.113Z,0.55
2022-11-06T06:07:17.173Z,0.5125
2022-11-06T06:11:16.547Z,0.8625
2022-11-06T06:14:16.557Z,0.7125
2022-11-06T06:17:17.018Z,0.575
2022-11-06T06:21:16.885Z,0.75
2022-11-06T06:24:16.841Z,1.5625
2022-11-06T06:27:17.393Z,1.4375
2022-11-06T06:31:18.057Z,1.15
2022-11-06T06:34:17.362Z,1.0375
2022-11-06T06:37:20.169Z,0.8374999999999999
2022-11-06T06:41:16.815Z,1.35
2022-11-06T06:44:17.039Z,1.675
2022-11-06T06:47:18.749Z,1.4875
2022-11-06T06:51:22.663Z,1.6375
2022-11-06T06:54:16.875Z,1.725
2022-11-06T06:57:16.851Z,1.625
2022-11-06T07:01:16.890Z,1.7750000000000001
2022-11-06T07:04:16.916Z,0.7875000000000001
2022-11-06T07:07:17.257Z,0.6875
2022-11-06T07:11:17.190Z,0.5375
2022-11-06T07:14:16.467Z,0.6625
2022-11-06T07:17:17.573Z,0.375
2022-11-06T07:21:16.198Z,0.2625
2022-11-06T07:24:18.682Z,0.225
2022-11-06T07:27:16.554Z,0.4
2022-11-06T07:31:20.291Z,0.25
2022-11-06T07:34:18.567Z,0.5625
2022-11-06T07:37:18.275Z,0.3125
2022-11-06T07:41:17.019Z,0.4125
2022-11-06T07:44:17.347Z,0.38750000000000007
2022-11-06T07:47:17.556Z,0.7375
2022-11-06T07:51:16.342Z,0.8375000000000001
2022-11-06T07:54:16.581Z,0.8
2022-11-06T07:57:17.649Z,0.775
2022-11-06T08:01:18.784Z,0.7625000000000001
2022-11-06T08:04:17.938Z,0.325
2022-11-06T08:07:18.788Z,0.46249999999999997
2022-11-06T08:11:16.447Z,0.5
2022-11-06T08:14:16.809Z,0.575
2022-11-06T08:17:16.698Z,0.3625
2022-11-06T08:21:17.225Z,0.7375
2022-11-06T08:24:21.777Z,0.42500000000000004
2022-11-06T08:27:17.447Z,0.5999999999999999
2022-11-06T08:31:16.480Z,0.8875
2022-11-06T08:34:17.448Z,0.8875
2022-11-06T08:37:16.961Z,0.525
2022-11-06T08:41:17.992Z,0.8625
2022-11-06T08:44:17.380Z,1.1375
2022-11-06T08:47:17.624Z,1.275
2022-11-06T08:51:17.006Z,1.15
2022-11-06T08:54:16.329Z,0.8375
2022-11-06T08:57:16.316Z,0.6375
2022-11-06T09:01:26.023Z,2.2125000000000004
2022-11-06T09:04:16.871Z,0.7124999999999999
2022-11-06T09:07:16.516Z,0.4375
2022-11-06T09:11:17.412Z,0.375
2022-11-06T09:14:17.080Z,0.1875
2022-11-06T09:17:17.725Z,0.3
2022-11-06T09:21:16.385Z,0.7124999999999999
2022-11-06T09:24:17.501Z,1.15
2022-11-06T09:27:17.303Z,0.6625
2022-11-06T09:31:16.214Z,0.6875
2022-11-06T09:34:18.017Z,0.35
2022-11-06T09:37:22.212Z,2.8625000000000003
2022-11-06T09:41:22.928Z,0.4875
2022-11-06T09:44:30.126Z,0.5125
2022-11-06T09:47:23.023Z,0.3125
2022-11-06T09:51:27.786Z,0.2625
2022-11-06T09:54:23.891Z,0.325
2022-11-06T09:57:20.707Z,0.5375
2022-11-06T10:01:26.780Z,0.4
2022-11-06T10:04:29.024Z,0.55
2022-11-06T10:07:26.295Z,0.5125000000000001
2022-11-06T10:11:39.092Z,0.1625
2022-11-06T10:14:32.474Z,1.6625
2022-11-06T10:17:28.598Z,0.7
2022-11-06T10:21:23.286Z,1.4625
2022-11-06T10:24:22.035Z,1.05
2022-11-06T10:27:21.029Z,2.0875000000000004
2022-11-06T10:31:48.821Z,0.48750000000000004
2022-11-06T10:34:24.436Z,0.325
2022-11-06T10:37:23.673Z,0.6875
2022-11-06T10:41:20.258Z,0.7
2022-11-06T10:44:23.184Z,0.675
2022-11-06T10:47:19.514Z,0.225
2022-11-06T10:51:36.696Z,0.35
2022-11-06T10:54:34.499Z,0.4
2022-11-06T10:57:52.337Z,0.625
2022-11-06T11:01:16.850Z,0.3875
2022-11-06T11:04:17.638Z,0.2125
2022-11-06T11:07:21.497Z,0.2875
2022-11-06T11:11:19.785Z,0.525
2022-11-06T11:14:42.533Z,0.4875
2022-11-06T11:17:19.755Z,0.375
2022-11-06T11:21:23.441Z,0.42500000000000004
2022-11-06T11:24:17.415Z,0.32499999999999996
2022-11-06T11:27:18.852Z,0.7124999999999999
2022-11-06T11:31:18.384Z,1.15
2022-11-06T11:34:20.474Z,0.65
2022-11-06T11:37:24.875Z,0.3875
2022-11-06T11:41:23.643Z,0.9
2022-11-06T11:44:18.735Z,0.4375
2022-11-06T11:47:22.747Z,0.6625000000000001
2022-11-06T11:51:26.513Z,0.725
2022-11-06T11:54:19.262Z,0.275
2022-11-06T11:57:20.577Z,0.475
2022-11-06T12:01:32.377Z,0.5625
2022-11-06T12:04:23.009Z,0.5
2022-11-06T12:07:48.135Z,0.3625
2022-11-06T12:11:21.425Z,0.5
2022-11-06T12:14:27.426Z,0.325
2022-11-06T12:17:22.164Z,0.4375
2022-11-06T12:21:27.075Z,0.4625
2022-11-06T12:24:24.101Z,0.3375
2022-11-06T12:27:24.545Z,0.4125
2022-11-06T12:31:23.939Z,0.3
2022-11-06T12:34:26.441Z,0.3
2022-11-06T12:37:24.036Z,0.625
2022-11-06T12:51:26.982Z,0.2875
2022-11-06T12:54:34.549Z,0.225
2022-11-06T12:57:28.338Z,0.25
2022-11-06T13:01:26.944Z,0.35
2022-11-06T13:04:31.885Z,0.2125
2022-11-06T13:07:32.272Z,0.325
2022-11-06T13:11:27.123Z,0.8125
2022-11-06T13:14:24.011Z,0.6125
2022-11-06T13:17:24.572Z,0.6000000000000001
2022-11-06T13:21:24.543Z,0.9750000000000001
2022-11-06T13:24:25.046Z,0.7374999999999999
2022-11-06T13:27:25.453Z,1.5
2022-11-06T13:31:23.537Z,1.3
2022-11-06T13:34:21.115Z,1.6875
2022-11-06T13:37:19.374Z,0.9375
2022-11-06T13:41:20.644Z,0.825
2022-11-06T13:44:19.026Z,0.8125
2022-11-06T13:48:00.605Z,0.9375
2022-11-06T13:51:22.985Z,0.9875
2022-11-06T13:54:25.599Z,0.6875
2022-11-06T13:57:41.715Z,0.75
2022-11-06T14:01:30.519Z,1.5499999999999998
2022-11-06T14:04:33.976Z,1.6
2022-11-06T14:07:18.562Z,1.1375
2022-11-06T14:11:18.509Z,0.95
2022-11-06T14:14:25.191Z,1.9749999999999999
2022-11-06T14:17:23.274Z,2.15
2022-11-06T14:21:47.355Z,1.625
2022-11-06T14:24:30.682Z,1.7874999999999999
2022-11-06T14:28:05.219Z,1.725
2022-11-06T14:31:58.572Z,1.3625
2022-11-06T14:34:45.144Z,1.0875
2022-11-06T14:37:49.900Z,1.0750000000000002
2022-11-06T14:41:56.081Z,1.5
2022-11-06T14:45:16.766Z,0.8625
2022-11-06T14:47:25.702Z,0.95
2022-11-06T14:51:16.451Z,1.0125000000000002
2022-11-06T14:54:23.263Z,1
2022-11-06T14:57:33.198Z,0.7749999999999999
2022-11-06T15:01:26.245Z,0.6
2022-11-06T15:04:20.032Z,0.7750000000000001
2022-11-06T15:07:58.262Z,1.0750000000000002
2022-11-06T15:12:07.174Z,0.625
2022-11-06T15:15:22.189Z,1.2375
2022-11-06T15:17:17.637Z,0.8125
2022-11-06T15:21:22.041Z,1.0625
2022-11-06T15:24:25.016Z,0.925
2022-11-06T15:27:23.788Z,0.8250000000000001
2022-11-06T15:31:18.452Z,0.9875
2022-11-06T15:34:29.773Z,1.2000000000000002
2022-11-06T15:37:20.547Z,1.1375
2022-11-06T15:41:19.175Z,2.425
2022-11-06T15:44:19.040Z,1.525
2022-11-06T15:47:21.129Z,2.025
2022-11-06T15:51:23.803Z,1.8624999999999998
2022-11-06T15:54:30.279Z,1.4625
2022-11-06T15:57:20.580Z,1.7
2022-11-06T16:01:32.155Z,2.25
2022-11-06T16:04:21.669Z,1.8125
2022-11-06T16:07:19.313Z,1.475
2022-11-06T16:11:19.824Z,2.2375
2022-11-06T16:14:22.596Z,2.7125000000000004
2022-11-06T16:17:22.044Z,2.8125
2022-11-06T16:21:19.216Z,2.825
2022-11-06T16:24:17.600Z,2.05
2022-11-06T16:27:17.730Z,2.45
2022-11-06T16:31:20.132Z,2.425
2022-11-06T16:34:20.494Z,2.8625
2022-11-06T16:37:38.027Z,4.3625
2022-11-06T16:42:00.888Z,4.2875
2022-11-06T16:44:29.338Z,2.825
2022-11-06T16:47:18.431Z,3.45
2022-11-06T16:51:31.285Z,2.1125
2022-11-06T16:54:22.633Z,2.55
2022-11-06T16:57:20.546Z,2.8125
2022-11-06T17:01:20.421Z,2.625
2022-11-06T17:04:21.759Z,3.25
2022-11-06T17:07:21.001Z,2.1625
2022-11-06T17:21:18.669Z,2.0875000000000004
2022-11-06T17:24:36.067Z,2.8375000000000004
2022-11-06T17:27:16.777Z,2.275
2022-11-06T17:31:18.773Z,2.375
2022-11-06T17:34:17.365Z,1.95
2022-11-06T17:37:18.953Z,2.4875
2022-11-06T17:41:30.334Z,2.6875
2022-11-06T17:44:17.138Z,1.9375
2022-11-06T17:47:17.172Z,2.1
2022-11-06T17:52:22.018Z,2.45
2022-11-06T17:54:18.729Z,12.424999999999999
2022-11-06T17:57:22.835Z,9.25
2022-11-06T18:01:18.943Z,1.925
2022-11-06T18:04:20.908Z,2.3125
2022-11-06T18:07:19.578Z,1.9874999999999998
2022-11-06T18:11:16.578Z,1.8
2022-11-06T18:14:17.867Z,1.3875
2022-11-06T18:17:17.416Z,1.4125
2022-11-06T18:21:16.747Z,1.7375
2022-11-06T18:24:17.349Z,2.3
2022-11-06T18:27:16.618Z,1.6375
2022-11-06T18:31:16.734Z,2.1
2022-11-06T18:34:20.669Z,3.0125
2022-11-06T18:37:16.567Z,5.875
2022-11-06T18:41:18.555Z,2.6625
2022-11-06T18:44:17.538Z,1.8375000000000001
2022-11-06T18:47:17.022Z,1.5499999999999998
2022-11-06T18:51:33.440Z,2.2125000000000004
2022-11-06T18:54:16.849Z,1.9375
2022-11-06T18:57:17.355Z,2.625
2022-11-06T19:01:16.636Z,2.725
2022-11-06T19:04:16.351Z,2.1875
2022-11-06T19:07:16.410Z,1.625
2022-11-06T19:11:18.443Z,2.775
2022-11-06T19:14:17.085Z,2.7625
2022-11-06T19:17:16.908Z,2.0875
2022-11-06T19:21:17.238Z,1.9125
2022-11-06T19:24:16.847Z,1.8125
2022-11-06T19:27:16.815Z,1.775
2022-11-06T19:31:19.111Z,1.6124999999999998
2022-11-06T19:34:20.884Z,1.5375
2022-11-06T19:37:19.911Z,1.65
2022-11-06T19:41:16.267Z,1.5999999999999999
2022-11-06T19:44:17.312Z,1.7
2022-11-06T19:47:17.847Z,1.7625
2022-11-06T19:51:17.774Z,1.6375
2022-11-06T19:54:17.239Z,2.9124999999999996
2022-11-06T19:57:28.447Z,2.3875
2022-11-06T20:01:18.157Z,2.6125
2022-11-06T20:04:17.100Z,1.9875
2022-11-06T20:07:16.986Z,2.05
2022-11-06T20:11:16.573Z,3.9124999999999996
2022-11-06T20:14:20.007Z,2.0625
2022-11-06T20:17:18.202Z,2.0875000000000004
2022-11-06T20:21:17.042Z,1.4874999999999998
2022-11-06T20:24:16.485Z,1.6375
2022-11-06T20:27:16.257Z,1.45
2022-11-06T20:31:19.014Z,2.125
2022-11-06T20:34:16.612Z,3.4125
2022-11-06T20:37:20.527Z,2.35
2022-11-06T20:41:16.308Z,2.55
2022-11-06T20:44:16.198Z,2.2625
2022-11-06T20:47:16.421Z,3.45
2022-11-06T20:51:20.389Z,3.2125000000000004
2022-11-06T20:54:20.697Z,2.025
2022-11-06T20:57:17.911Z,2.15
2022-11-06T21:01:20.948Z,2.1750000000000003
2022-11-06T21:04:17.656Z,1.6625
2022-11-06T21:07:17.802Z,1.8125
2022-11-06T21:11:18.733Z,2.4
2022-11-06T21:14:17.482Z,1.9
2022-11-06T21:17:16.924Z,1.75
2022-11-06T21:21:18.899Z,1.7875
2022-11-06T21:24:18.157Z,1.9124999999999999
2022-11-06T21:27:16.987Z,2.325
2022-11-06T21:31:18.891Z,1.8125
2022-11-06T21:34:18.414Z,1.8875
2022-11-06T21:37:16.862Z,1.5
2022-11-06T21:41:18.414Z,1.825
2022-11-06T21:44:17.802Z,1.625
2022-11-06T21:47:19.735Z,1.3375
2022-11-06T21:51:17.537Z,1.6875
2022-11-06T22:01:18.746Z,1.4874999999999998
2022-11-06T22:04:17.804Z,1.4375
2022-11-06T22:07:17.230Z,1.4249999999999998
2022-11-06T22:11:18.485Z,2.0125
2022-11-06T22:14:17.289Z,1.875
2022-11-06T22:17:18.146Z,2.45
2022-11-06T22:21:19.242Z,2.2125
2022-11-06T22:24:17.451Z,2.65
2022-11-06T22:27:16.760Z,1.9499999999999997
2022-11-06T22:31:15.926Z,2.0625
2022-11-06T22:34:17.429Z,2.2874999999999996
2022-11-06T22:37:18.280Z,2.2750000000000004
2022-11-06T22:41:18.725Z,1.8
2022-11-06T22:44:16.660Z,2.15
2022-11-06T22:47:16.905Z,1.4500000000000002
2022-11-06T22:51:19.064Z,2.375
2022-11-06T22:54:17.442Z,2.025
2022-11-06T22:57:16.641Z,1.975
2022-11-06T23:01:21.551Z,1.875
2022-11-06T23:04:17.018Z,2.9000000000000004
2022-11-06T23:07:18.659Z,2.775
2022-11-06T23:11:22.541Z,3.8874999999999997
2022-11-06T23:14:16.932Z,3.1125
2022-11-06T23:17:17.511Z,3.925
2022-11-06T23:21:18.183Z,3.2125
2022-11-06T23:24:17.081Z,3.4
2022-11-06T23:27:17.499Z,2.725
2022-11-06T23:31:16.453Z,2.25
2022-11-06T23:34:17.732Z,1.5375
2022-11-06T23:37:16.689Z,1.9625
2022-11-06T23:41:48.202Z,1.9124999999999999
